createdAt,value
2023-01-06T00:00:50.684Z,0.88
2023-01-06T00:01:50.619Z,0.72
2023-01-06T00:02:50.592Z,0.40
2023-01-06T00:03:50.791Z,0.08
2023-01-06T00:04:50.555Z,0.00
2023-01-06T00:05:50.556Z,0.00
2023-01-06T00:06:50.788Z,0.00
2023-01-06T00:07:50.538Z,0.00
2023-01-06T00:08:50.504Z,0.00
2023-01-06T00:09:54.594Z,0.00
2023-01-06T00:10:50.476Z,0.40
2023-01-06T00:11:50.459Z,0.76
2023-01-06T00:12:50.459Z,0.68
2023-01-06T00:13:50.441Z,0.72
2023-01-06T00:14:50.401Z,0.76
2023-01-06T00:15:50.483Z,0.72
2023-01-06T00:16:50.391Z,0.80
2023-01-06T00:17:50.603Z,0.60
2023-01-06T00:18:50.356Z,0.64
2023-01-06T00:19:50.365Z,0.64
2023-01-06T00:20:50.569Z,0.52
2023-01-06T00:21:50.324Z,0.68
2023-01-06T00:22:50.424Z,0.48
2023-01-06T00:23:50.304Z,0.56
2023-01-06T00:24:50.275Z,0.64
2023-01-06T00:25:50.267Z,0.64
2023-01-06T00:26:50.263Z,0.68
2023-01-06T00:27:50.244Z,1.00
2023-01-06T00:28:50.221Z,0.84
2023-01-06T00:29:50.214Z,1.16
2023-01-06T00:30:50.238Z,1.12
2023-01-06T00:31:50.191Z,1.08
2023-01-06T00:32:50.230Z,0.80
2023-01-06T00:33:50.156Z,0.88
2023-01-06T00:34:50.136Z,1.04
2023-01-06T00:35:50.353Z,1.36
2023-01-06T00:36:50.125Z,1.12
2023-01-06T00:37:50.130Z,0.92
2023-01-06T00:38:50.077Z,0.80
2023-01-06T00:39:50.096Z,1.32
2023-01-06T00:40:50.069Z,1.24
2023-01-06T00:41:50.075Z,1.16
2023-01-06T00:42:50.046Z,0.72
2023-01-06T00:43:50.054Z,0.84
2023-01-06T00:44:50.004Z,0.00
2023-01-06T00:45:50.010Z,0.00
2023-01-06T00:46:50.017Z,0.00
2023-01-06T00:47:49.991Z,0.00
2023-01-06T00:49:03.661Z,0.00
2023-01-06T00:49:50.939Z,0.00
2023-01-06T00:50:49.975Z,0.00
2023-01-06T00:51:49.952Z,0.08
2023-01-06T00:52:49.935Z,0.04
2023-01-06T00:53:49.881Z,0.04
2023-01-06T00:54:49.882Z,0.52
2023-01-06T00:55:49.852Z,0.40
2023-01-06T00:56:49.867Z,0.36
2023-01-06T00:57:52.568Z,0.00
2023-01-06T00:58:49.828Z,0.00
2023-01-06T00:59:49.790Z,0.00
2023-01-06T01:00:49.824Z,0.00
2023-01-06T01:01:51.130Z,0.24
2023-01-06T01:02:49.799Z,0.72
2023-01-06T01:03:49.993Z,0.20
2023-01-06T01:04:49.775Z,0.00
2023-01-06T01:05:49.732Z,0.00
2023-01-06T01:06:49.732Z,0.00
2023-01-06T01:07:49.727Z,0.00
2023-01-06T01:08:49.731Z,0.00
2023-01-06T01:09:49.713Z,0.24
2023-01-06T01:10:49.653Z,0.56
2023-01-06T01:11:49.654Z,0.44
2023-01-06T01:12:49.643Z,0.44
2023-01-06T01:13:49.631Z,0.68
2023-01-06T01:14:49.616Z,0.12
2023-01-06T01:15:49.638Z,0.00
2023-01-06T01:16:49.592Z,0.00
2023-01-06T01:17:49.583Z,0.00
2023-01-06T01:18:49.945Z,0.00
2023-01-06T01:19:49.560Z,0.00
2023-01-06T01:20:49.579Z,0.08
2023-01-06T01:21:49.605Z,0.00
2023-01-06T01:22:49.513Z,0.12
2023-01-06T01:23:49.530Z,0.00
2023-01-06T01:24:49.480Z,0.20
2023-01-06T01:25:49.454Z,0.80
2023-01-06T01:26:49.460Z,0.92
2023-01-06T01:27:49.419Z,0.88
2023-01-06T01:28:49.417Z,0.72
2023-01-06T01:29:49.416Z,1.36
2023-01-06T01:30:49.446Z,0.16
2023-01-06T01:31:49.387Z,0.00
2023-01-06T01:32:49.403Z,0.80
2023-01-06T01:33:49.577Z,1.92
2023-01-06T01:34:49.356Z,1.76
2023-01-06T01:35:49.561Z,2.64
2023-01-06T01:36:49.327Z,1.52
2023-01-06T01:37:49.324Z,2.44
2023-01-06T01:38:49.312Z,2.44
2023-01-06T01:39:49.302Z,2.92
2023-01-06T01:40:49.246Z,2.40
2023-01-06T01:41:49.240Z,3.56
2023-01-06T01:42:49.253Z,2.96
2023-01-06T01:43:49.221Z,3.28
2023-01-06T01:44:49.260Z,3.12
2023-01-06T01:45:49.180Z,2.48
2023-01-06T01:46:49.183Z,2.12
2023-01-06T01:47:49.152Z,2.68
2023-01-06T01:48:49.170Z,2.32
2023-01-06T01:49:49.128Z,2.40
2023-01-06T01:50:49.359Z,2.24
2023-01-06T01:51:49.117Z,2.32
2023-01-06T01:52:49.118Z,3.04
2023-01-06T01:53:49.085Z,2.72
2023-01-06T01:54:49.073Z,2.40
2023-01-06T01:55:49.049Z,2.24
2023-01-06T01:56:49.091Z,2.68
2023-01-06T01:57:49.052Z,2.96
2023-01-06T01:58:49.039Z,1.84
2023-01-06T01:59:48.985Z,1.72
2023-01-06T02:00:49.024Z,2.36
2023-01-06T02:01:49.054Z,2.52
2023-01-06T02:02:49.227Z,2.52
2023-01-06T02:03:48.960Z,2.64
2023-01-06T02:04:48.999Z,2.68
2023-01-06T02:05:48.920Z,2.24
2023-01-06T02:06:48.940Z,1.52
2023-01-06T02:07:48.889Z,2.16
2023-01-06T02:08:48.887Z,1.80
2023-01-06T02:09:49.035Z,1.60
2023-01-06T02:10:48.889Z,2.48
2023-01-06T02:11:48.843Z,3.28
2023-01-06T02:12:49.062Z,3.12
2023-01-06T02:13:48.798Z,1.72
2023-01-06T02:14:49.079Z,2.04
2023-01-06T02:15:48.798Z,1.80
2023-01-06T02:16:49.081Z,2.68
2023-01-06T02:17:48.766Z,1.56
2023-01-06T02:18:48.747Z,1.44
2023-01-06T02:19:48.740Z,1.20
2023-01-06T02:20:50.450Z,1.88
2023-01-06T02:21:48.714Z,2.16
2023-01-06T02:22:48.709Z,1.52
2023-01-06T02:23:48.679Z,1.68
2023-01-06T02:24:49.630Z,1.92
2023-01-06T02:25:48.662Z,1.88
2023-01-06T02:26:48.645Z,2.52
2023-01-06T02:27:48.630Z,3.04
2023-01-06T02:28:48.637Z,1.76
2023-01-06T02:29:48.606Z,2.52
2023-01-06T02:30:48.598Z,2.36
2023-01-06T02:31:48.575Z,1.88
2023-01-06T02:32:48.560Z,1.96
2023-01-06T02:33:48.553Z,2.24
2023-01-06T02:34:48.552Z,2.12
2023-01-06T02:35:48.552Z,2.56
2023-01-06T02:36:48.503Z,1.84
2023-01-06T02:37:48.490Z,2.08
2023-01-06T02:38:48.490Z,1.68
2023-01-06T02:39:48.459Z,3.12
2023-01-06T02:40:48.485Z,3.04
2023-01-06T02:41:48.435Z,2.08
2023-01-06T02:42:48.417Z,2.48
2023-01-06T02:43:48.431Z,2.60
2023-01-06T02:44:48.396Z,4.00
2023-01-06T02:45:48.395Z,3.00
2023-01-06T02:46:48.496Z,3.64
2023-01-06T02:47:48.365Z,2.96
2023-01-06T02:48:48.352Z,2.48
2023-01-06T02:50:10.293Z,2.44
2023-01-06T02:50:48.323Z,3.64
2023-01-06T02:51:48.284Z,4.08
2023-01-06T02:52:48.301Z,2.52
2023-01-06T02:53:48.270Z,2.00
2023-01-06T02:54:48.488Z,3.08
2023-01-06T02:55:48.264Z,3.08
2023-01-06T02:56:48.243Z,2.44
2023-01-06T02:57:48.230Z,3.80
2023-01-06T02:58:48.223Z,3.52
2023-01-06T02:59:48.185Z,2.64
2023-01-06T03:00:48.206Z,3.92
2023-01-06T03:01:48.264Z,3.16
2023-01-06T03:02:48.157Z,2.96
2023-01-06T03:03:48.136Z,3.52
2023-01-06T03:04:48.156Z,3.16
2023-01-06T03:05:48.119Z,3.00
2023-01-06T03:06:48.092Z,2.60
2023-01-06T03:07:48.095Z,2.96
2023-01-06T03:08:48.059Z,3.68
2023-01-06T03:09:48.292Z,3.36
2023-01-06T03:10:48.282Z,4.08
2023-01-06T03:11:48.257Z,3.40
2023-01-06T03:12:48.012Z,3.20
2023-01-06T03:13:47.993Z,3.24
2023-01-06T03:14:47.976Z,3.08
2023-01-06T03:15:48.012Z,3.28
2023-01-06T03:16:47.980Z,3.04
2023-01-06T03:17:47.945Z,2.32
2023-01-06T03:18:47.932Z,2.52
2023-01-06T03:19:47.922Z,3.28
2023-01-06T03:20:47.936Z,3.32
2023-01-06T03:21:47.929Z,3.28
2023-01-06T03:22:47.894Z,3.60
2023-01-06T03:23:47.882Z,4.04
2023-01-06T03:24:47.858Z,2.56
2023-01-06T03:25:47.845Z,3.20
2023-01-06T03:26:48.058Z,2.36
2023-01-06T03:27:47.808Z,3.88
2023-01-06T03:28:48.041Z,3.68
2023-01-06T03:29:47.809Z,2.68
2023-01-06T03:30:48.018Z,3.40
2023-01-06T03:31:47.766Z,3.32
2023-01-06T03:32:47.777Z,3.04
2023-01-06T03:33:47.755Z,3.24
2023-01-06T03:34:47.716Z,3.28
2023-01-06T03:35:47.722Z,3.88
2023-01-06T03:36:47.716Z,3.48
2023-01-06T03:37:47.682Z,3.52
2023-01-06T03:38:47.669Z,2.96
2023-01-06T03:39:47.661Z,4.00
2023-01-06T03:40:47.721Z,3.72
2023-01-06T03:41:47.644Z,2.80
2023-01-06T03:42:47.649Z,4.72
2023-01-06T03:43:47.583Z,3.56
2023-01-06T03:44:47.598Z,2.64
2023-01-06T03:45:47.719Z,2.52
2023-01-06T03:46:47.574Z,3.76
2023-01-06T03:47:47.538Z,2.96
2023-01-06T03:48:47.528Z,2.92
2023-01-06T03:49:47.529Z,2.32
2023-01-06T03:50:47.516Z,1.84
2023-01-06T03:51:47.527Z,2.20
2023-01-06T03:52:47.724Z,2.16
2023-01-06T03:53:47.469Z,2.24
2023-01-06T03:54:47.456Z,2.40
2023-01-06T03:55:47.521Z,2.44
2023-01-06T03:56:47.513Z,3.36
2023-01-06T03:57:47.412Z,2.40
2023-01-06T03:58:47.424Z,2.16
2023-01-06T03:59:47.374Z,1.48
2023-01-06T04:00:47.440Z,2.32
2023-01-06T04:01:47.379Z,3.68
2023-01-06T04:02:47.342Z,3.32
2023-01-06T04:03:47.425Z,2.56
2023-01-06T04:04:47.631Z,3.64
2023-01-06T04:05:47.324Z,4.00
2023-01-06T04:06:47.305Z,4.16
2023-01-06T04:07:47.509Z,3.16
2023-01-06T04:08:47.316Z,3.20
2023-01-06T04:09:47.246Z,2.76
2023-01-06T04:10:47.250Z,2.16
2023-01-06T04:11:47.259Z,2.52
2023-01-06T04:12:47.213Z,3.56
2023-01-06T04:13:47.216Z,2.64
2023-01-06T04:14:47.338Z,2.68
2023-01-06T04:15:47.194Z,4.28
2023-01-06T04:16:47.195Z,3.48
2023-01-06T04:17:47.196Z,4.32
2023-01-06T04:18:47.148Z,2.36
2023-01-06T04:19:47.200Z,3.56
2023-01-06T04:20:47.117Z,2.68
2023-01-06T04:21:47.089Z,2.08
2023-01-06T04:22:47.097Z,2.04
2023-01-06T04:23:47.077Z,2.72
2023-01-06T04:24:47.139Z,2.80
2023-01-06T04:25:47.072Z,3.72
2023-01-06T04:26:47.048Z,3.56
2023-01-06T04:27:47.013Z,3.60
2023-01-06T04:28:46.993Z,3.84
2023-01-06T04:29:47.009Z,3.92
2023-01-06T04:30:47.039Z,3.08
2023-01-06T04:31:47.037Z,4.08
2023-01-06T04:32:47.251Z,3.48
2023-01-06T04:33:46.963Z,2.60
2023-01-06T04:34:46.955Z,3.36
2023-01-06T04:35:46.961Z,3.24
2023-01-06T04:36:46.919Z,4.00
2023-01-06T04:37:46.891Z,4.68
2023-01-06T04:38:46.870Z,3.76
2023-01-06T04:39:46.883Z,3.72
2023-01-06T04:40:46.852Z,2.52
2023-01-06T04:41:46.841Z,1.84
2023-01-06T04:42:46.830Z,3.08
2023-01-06T04:43:46.827Z,2.68
2023-01-06T04:44:46.813Z,2.44
2023-01-06T04:45:46.821Z,2.16
2023-01-06T04:46:46.772Z,4.04
2023-01-06T04:47:46.752Z,4.48
2023-01-06T04:48:46.738Z,4.04
2023-01-06T04:49:47.227Z,3.32
2023-01-06T04:50:46.706Z,2.88
2023-01-06T04:51:46.707Z,1.60
2023-01-06T04:52:46.703Z,3.40
2023-01-06T04:53:46.672Z,2.64
2023-01-06T04:54:46.679Z,3.60
2023-01-06T04:55:46.654Z,2.16
2023-01-06T04:56:46.646Z,3.00
2023-01-06T04:57:46.624Z,1.88
2023-01-06T04:58:46.629Z,1.36
2023-01-06T04:59:46.635Z,3.32
2023-01-06T05:00:46.588Z,2.44
2023-01-06T05:01:46.918Z,2.72
2023-01-06T05:02:46.576Z,1.84
2023-01-06T05:03:46.651Z,3.12
2023-01-06T05:04:48.095Z,2.64
2023-01-06T05:05:46.514Z,2.56
2023-01-06T05:06:46.557Z,2.68
2023-01-06T05:07:46.553Z,2.84
2023-01-06T05:08:46.702Z,2.96
2023-01-06T05:09:46.501Z,2.68
2023-01-06T05:10:46.475Z,2.76
2023-01-06T05:11:46.463Z,2.80
2023-01-06T05:12:46.445Z,1.76
2023-01-06T05:13:46.426Z,2.24
2023-01-06T05:14:46.485Z,2.80
2023-01-06T05:15:46.647Z,3.28
2023-01-06T05:16:46.380Z,2.04
2023-01-06T05:17:46.401Z,3.24
2023-01-06T05:18:46.661Z,2.80
2023-01-06T05:19:46.364Z,3.36
2023-01-06T05:20:46.332Z,3.88
2023-01-06T05:21:46.334Z,4.28
2023-01-06T05:22:46.656Z,3.80
2023-01-06T05:23:46.298Z,5.00
2023-01-06T05:24:46.512Z,3.56
2023-01-06T05:25:46.261Z,2.76
2023-01-06T05:26:46.245Z,3.32
2023-01-06T05:27:46.222Z,3.44
2023-01-06T05:28:46.227Z,4.12
2023-01-06T05:29:46.230Z,3.76
2023-01-06T05:30:46.198Z,3.84
2023-01-06T05:31:46.301Z,3.92
2023-01-06T05:32:46.177Z,3.40
2023-01-06T05:33:46.188Z,2.48
2023-01-06T05:34:46.153Z,1.76
2023-01-06T05:35:46.162Z,2.28
2023-01-06T05:36:46.153Z,2.92
2023-01-06T05:37:46.091Z,4.08
2023-01-06T05:38:46.076Z,3.08
2023-01-06T05:39:46.089Z,2.44
2023-01-06T05:40:46.057Z,2.28
2023-01-06T05:41:46.067Z,3.24
2023-01-06T05:42:46.276Z,3.12
2023-01-06T05:43:46.040Z,2.68
2023-01-06T05:44:46.009Z,2.04
2023-01-06T05:45:46.036Z,3.88
2023-01-06T05:46:46.211Z,2.08
2023-01-06T05:47:45.967Z,1.48
2023-01-06T05:48:45.957Z,2.48
2023-01-06T05:49:46.930Z,2.24
2023-01-06T05:50:45.909Z,2.28
2023-01-06T05:51:45.906Z,2.52
2023-01-06T05:52:45.893Z,2.24
2023-01-06T05:53:45.889Z,3.32
2023-01-06T05:54:46.057Z,2.80
2023-01-06T05:55:45.876Z,2.36
2023-01-06T05:56:45.872Z,2.60
2023-01-06T05:57:45.852Z,4.44
2023-01-06T05:58:45.820Z,3.08
2023-01-06T05:59:45.816Z,3.36
2023-01-06T06:00:45.790Z,2.16
2023-01-06T06:01:45.883Z,2.44
2023-01-06T06:02:45.756Z,3.04
2023-01-06T06:03:45.847Z,2.28
2023-01-06T06:04:45.730Z,1.48
2023-01-06T06:05:46.007Z,2.04
2023-01-06T06:06:46.001Z,2.20
2023-01-06T06:07:45.699Z,1.84
2023-01-06T06:08:45.680Z,2.12
2023-01-06T06:09:45.682Z,1.32
2023-01-06T06:10:45.664Z,2.84
2023-01-06T06:11:45.644Z,2.36
2023-01-06T06:12:45.724Z,1.96
2023-01-06T06:13:46.064Z,1.76
2023-01-06T06:14:45.618Z,1.96
2023-01-06T06:15:45.583Z,1.08
2023-01-06T06:16:45.628Z,2.40
2023-01-06T06:17:45.580Z,3.28
2023-01-06T06:18:45.555Z,3.80
2023-01-06T06:19:45.529Z,2.92
2023-01-06T06:20:45.516Z,2.64
2023-01-06T06:21:45.524Z,2.76
2023-01-06T06:22:45.749Z,1.48
2023-01-06T06:23:52.511Z,1.44
2023-01-06T06:27:23.326Z,6.80
2023-01-06T06:27:29.491Z,0.28
2023-01-06T06:28:28.100Z,2.60
2023-01-06T06:29:28.848Z,3.44
2023-01-06T06:30:28.068Z,2.68
2023-01-06T06:31:28.172Z,1.36
2023-01-06T06:32:28.046Z,1.56
2023-01-06T06:33:28.048Z,2.84
2023-01-06T06:34:28.449Z,2.48
2023-01-06T06:35:28.014Z,2.36
2023-01-06T06:36:27.988Z,2.00
2023-01-06T06:37:27.984Z,2.48
2023-01-06T06:38:28.718Z,2.08
2023-01-06T06:39:27.968Z,4.08
2023-01-06T06:40:27.939Z,2.32
2023-01-06T06:41:27.924Z,2.72
2023-01-06T06:42:27.916Z,3.20
2023-01-06T06:43:27.906Z,3.48
2023-01-06T06:44:27.896Z,3.56
2023-01-06T06:45:27.907Z,3.52
2023-01-06T06:46:27.881Z,2.84
2023-01-06T06:47:27.872Z,2.24
2023-01-06T06:48:27.879Z,1.80
2023-01-06T06:49:27.825Z,2.56
2023-01-06T06:50:27.858Z,2.72
2023-01-06T06:51:27.847Z,2.36
2023-01-06T06:52:27.771Z,2.36
2023-01-06T06:53:27.772Z,1.80
2023-01-06T06:54:27.791Z,2.64
2023-01-06T06:55:27.747Z,1.68
2023-01-06T06:56:27.715Z,1.36
2023-01-06T06:57:27.719Z,1.88
2023-01-06T06:58:27.717Z,1.88
2023-01-06T06:59:27.684Z,3.16
2023-01-06T07:00:27.713Z,1.88
2023-01-06T07:01:27.747Z,2.60
2023-01-06T07:02:27.663Z,1.72
2023-01-06T07:03:27.662Z,1.72
2023-01-06T07:04:27.707Z,2.40
2023-01-06T07:05:27.645Z,1.56
2023-01-06T07:06:28.817Z,2.76
2023-01-06T07:07:27.596Z,1.92
2023-01-06T07:08:27.586Z,1.44
2023-01-06T07:09:27.557Z,1.32
2023-01-06T07:10:27.780Z,1.88
2023-01-06T07:11:27.515Z,2.40
2023-01-06T07:12:27.513Z,2.04
2023-01-06T07:13:27.502Z,2.12
2023-01-06T07:14:27.486Z,1.60
2023-01-06T07:15:27.458Z,1.88
2023-01-06T07:16:27.460Z,1.68
2023-01-06T07:17:27.437Z,1.48
2023-01-06T07:18:27.442Z,1.24
2023-01-06T07:19:27.438Z,1.92
2023-01-06T07:20:27.643Z,1.64
2023-01-06T07:21:27.408Z,1.80
2023-01-06T07:22:27.393Z,2.80
2023-01-06T07:23:27.424Z,1.52
2023-01-06T07:24:27.347Z,1.36
2023-01-06T07:25:27.374Z,0.48
2023-01-06T07:26:27.331Z,1.60
2023-01-06T07:27:27.330Z,2.20
2023-01-06T07:28:27.343Z,1.44
2023-01-06T07:29:27.283Z,2.08
2023-01-06T07:30:27.278Z,2.16
2023-01-06T07:31:27.343Z,1.64
2023-01-06T07:32:27.248Z,2.24
2023-01-06T07:33:27.481Z,1.28
2023-01-06T07:34:27.222Z,1.08
2023-01-06T07:35:27.227Z,1.92
2023-01-06T07:36:27.452Z,1.32
2023-01-06T07:37:27.222Z,1.40
2023-01-06T07:38:27.219Z,1.48
2023-01-06T07:39:27.177Z,1.68
2023-01-06T07:40:27.132Z,1.20
2023-01-06T07:41:27.134Z,1.52
2023-01-06T07:42:27.126Z,1.16
2023-01-06T07:43:27.094Z,1.84
2023-01-06T07:44:27.101Z,1.88
2023-01-06T07:45:27.079Z,1.20
2023-01-06T07:46:27.131Z,1.00
2023-01-06T07:47:27.305Z,1.48
2023-01-06T07:48:27.050Z,1.88
2023-01-06T07:49:27.011Z,1.04
2023-01-06T07:50:27.991Z,1.92
2023-01-06T07:51:27.007Z,2.36
2023-01-06T07:52:26.976Z,1.96
2023-01-06T07:53:26.995Z,2.00
2023-01-06T07:54:26.953Z,1.60
2023-01-06T07:55:26.948Z,1.68
2023-01-06T07:56:26.998Z,2.72
2023-01-06T07:57:26.936Z,1.76
2023-01-06T07:58:26.950Z,2.84
2023-01-06T07:59:26.887Z,2.04
2023-01-06T08:00:26.862Z,1.44
2023-01-06T08:01:26.937Z,0.92
2023-01-06T08:02:27.064Z,1.64
2023-01-06T08:03:26.972Z,2.08
2023-01-06T08:04:26.813Z,2.28
2023-01-06T08:05:27.804Z,1.48
2023-01-06T08:06:26.781Z,1.28
2023-01-06T08:07:26.904Z,1.16
2023-01-06T08:08:26.822Z,1.36
2023-01-06T08:09:26.764Z,1.20
2023-01-06T08:10:26.730Z,2.60
2023-01-06T08:11:26.743Z,2.52
2023-01-06T08:12:26.715Z,1.04
2023-01-06T08:13:26.719Z,1.76
2023-01-06T08:14:26.707Z,1.28
2023-01-06T08:15:26.667Z,1.40
2023-01-06T08:16:26.677Z,1.84
2023-01-06T08:17:26.644Z,1.56
2023-01-06T08:18:26.661Z,1.08
2023-01-06T08:19:26.635Z,0.92
2023-01-06T08:20:26.688Z,0.92
2023-01-06T08:21:26.608Z,1.12
2023-01-06T08:22:26.835Z,1.08
2023-01-06T08:23:26.581Z,1.28
2023-01-06T08:24:26.569Z,1.08
2023-01-06T08:25:26.530Z,0.88
2023-01-06T08:26:26.555Z,1.40
2023-01-06T08:27:27.352Z,1.48
2023-01-06T08:28:26.548Z,2.16
2023-01-06T08:29:26.510Z,1.12
2023-01-06T08:30:26.563Z,1.68
2023-01-06T08:31:26.495Z,1.64
2023-01-06T08:32:26.490Z,1.68
2023-01-06T08:33:26.445Z,1.44
2023-01-06T08:34:26.419Z,1.80
2023-01-06T08:35:26.441Z,2.44
2023-01-06T08:36:27.152Z,2.36
2023-01-06T08:37:26.794Z,1.80
2023-01-06T08:38:26.676Z,1.48
2023-01-06T08:39:26.389Z,1.64
2023-01-06T08:40:26.367Z,0.72
2023-01-06T08:41:26.598Z,1.68
2023-01-06T08:42:26.826Z,1.64
2023-01-06T08:43:26.395Z,2.40
2023-01-06T08:44:26.342Z,2.32
2023-01-06T08:45:26.280Z,1.56
2023-01-06T08:46:26.305Z,1.40
2023-01-06T08:47:26.300Z,1.80
2023-01-06T08:48:26.845Z,1.52
2023-01-06T08:49:26.812Z,1.76
2023-01-06T08:50:27.504Z,0.64
2023-01-06T08:51:26.235Z,0.96
2023-01-06T08:52:26.205Z,1.28
2023-01-06T08:53:26.205Z,1.28
2023-01-06T08:54:26.194Z,2.72
2023-01-06T08:55:26.197Z,1.48
2023-01-06T08:56:26.310Z,2.80
2023-01-06T08:57:26.462Z,1.24
2023-01-06T08:58:26.150Z,2.48
2023-01-06T08:59:26.106Z,0.84
2023-01-06T09:00:26.099Z,1.20
2023-01-06T09:01:26.286Z,1.04
2023-01-06T09:02:26.456Z,0.56
2023-01-06T09:03:26.054Z,0.80
2023-01-06T09:04:26.055Z,1.40
2023-01-06T09:05:26.055Z,0.80
2023-01-06T09:06:26.045Z,0.64
2023-01-06T09:07:26.002Z,0.12
2023-01-06T09:08:26.060Z,1.04
2023-01-06T09:09:26.021Z,2.60
2023-01-06T09:10:25.958Z,1.52
2023-01-06T09:11:25.961Z,0.84
2023-01-06T09:12:25.918Z,0.68
2023-01-06T09:13:26.058Z,0.92
2023-01-06T09:14:25.904Z,1.36
2023-01-06T09:15:25.897Z,1.44
2023-01-06T09:16:25.951Z,1.24
2023-01-06T09:17:26.115Z,1.96
2023-01-06T09:18:25.977Z,1.40
2023-01-06T09:19:27.100Z,1.36
2023-01-06T09:20:25.833Z,0.72
2023-01-06T09:21:25.817Z,1.48
2023-01-06T09:22:25.788Z,1.60
2023-01-06T09:23:25.798Z,2.08
2023-01-06T09:24:25.776Z,1.60
2023-01-06T09:25:25.782Z,1.04
2023-01-06T09:26:25.766Z,1.24
2023-01-06T09:27:25.758Z,0.64
2023-01-06T09:28:25.748Z,1.56
2023-01-06T09:29:25.969Z,1.72
2023-01-06T09:30:25.695Z,1.76
2023-01-06T09:31:25.712Z,1.20
2023-01-06T09:32:25.657Z,1.44
2023-01-06T09:33:26.953Z,1.92
2023-01-06T09:34:25.654Z,0.96
2023-01-06T09:35:25.641Z,2.28
2023-01-06T09:36:25.610Z,1.76
2023-01-06T09:37:25.592Z,1.40
2023-01-06T09:38:25.678Z,2.72
2023-01-06T09:39:25.614Z,1.28
2023-01-06T09:40:25.568Z,0.72
2023-01-06T09:41:25.829Z,0.64
2023-01-06T09:42:25.702Z,0.96
2023-01-06T09:43:25.544Z,1.04
2023-01-06T09:44:25.521Z,1.68
2023-01-06T09:45:25.491Z,2.20
2023-01-06T09:46:25.572Z,2.64
2023-01-06T09:47:25.483Z,2.44
2023-01-06T09:48:25.712Z,1.24
2023-01-06T09:49:25.476Z,1.60
2023-01-06T09:50:25.419Z,1.28
2023-01-06T09:51:25.421Z,2.84
2023-01-06T09:52:25.407Z,2.76
2023-01-06T09:53:25.409Z,2.24
2023-01-06T09:54:25.420Z,2.08
2023-01-06T09:55:25.433Z,1.20
2023-01-06T09:56:25.357Z,1.52
2023-01-06T09:57:25.366Z,2.20
2023-01-06T09:58:25.331Z,1.76
2023-01-06T09:59:25.327Z,2.44
2023-01-06T10:00:25.347Z,1.40
2023-01-06T10:01:25.396Z,1.44
2023-01-06T10:02:25.321Z,1.52
2023-01-06T10:03:25.257Z,2.04
2023-01-06T10:04:25.251Z,2.28
2023-01-06T10:05:25.224Z,1.36
2023-01-06T10:06:25.329Z,1.72
2023-01-06T10:07:25.264Z,2.32
2023-01-06T10:08:25.246Z,2.64
2023-01-06T10:09:25.168Z,1.40
2023-01-06T10:10:25.183Z,2.84
2023-01-06T10:11:25.146Z,2.52
2023-01-06T10:12:25.175Z,2.00
2023-01-06T10:13:25.112Z,2.84
2023-01-06T10:14:25.123Z,2.72
2023-01-06T10:15:26.703Z,2.64
2023-01-06T10:16:25.162Z,4.04
2023-01-06T10:17:25.138Z,4.32
2023-01-06T10:18:25.080Z,2.68
2023-01-06T10:19:25.304Z,2.32
2023-01-06T10:20:25.023Z,1.36
2023-01-06T10:21:25.029Z,1.52
2023-01-06T10:22:25.057Z,2.36
2023-01-06T10:23:25.013Z,2.48
2023-01-06T10:24:25.070Z,1.32
2023-01-06T10:25:24.979Z,2.60
2023-01-06T10:26:25.089Z,4.00
2023-01-06T10:27:25.187Z,1.68
2023-01-06T10:28:24.975Z,0.96
2023-01-06T10:29:24.953Z,1.80
2023-01-06T10:30:30.209Z,2.32
2023-01-06T10:31:25.958Z,3.04
2023-01-06T10:32:24.905Z,0.96
2023-01-06T10:34:25.109Z,2.64
2023-01-06T10:35:24.855Z,1.24
2023-01-06T10:36:26.532Z,1.52
2023-01-06T10:37:25.057Z,1.16
2023-01-06T10:38:24.804Z,2.24
2023-01-06T10:39:24.854Z,1.80
2023-01-06T10:40:24.803Z,3.64
2023-01-06T10:41:24.816Z,1.40
2023-01-06T10:42:24.795Z,2.80
2023-01-06T10:43:24.771Z,0.76
2023-01-06T10:44:24.813Z,0.96
2023-01-06T10:45:24.739Z,2.52
2023-01-06T10:46:24.979Z,1.16
2023-01-06T10:47:24.767Z,2.08
2023-01-06T10:48:24.678Z,0.96
2023-01-06T10:49:24.725Z,2.16
2023-01-06T10:50:24.657Z,1.00
2023-01-06T10:51:24.654Z,2.20
2023-01-06T10:52:24.686Z,1.08
2023-01-06T10:53:24.611Z,2.28
2023-01-06T10:54:24.623Z,3.84
2023-01-06T10:55:24.984Z,1.04
2023-01-06T10:56:24.635Z,2.64
2023-01-06T10:57:24.571Z,1.48
2023-01-06T10:58:24.552Z,1.80
2023-01-06T10:59:24.534Z,0.84
2023-01-06T11:00:24.520Z,2.92
2023-01-06T11:01:24.610Z,1.00
2023-01-06T11:02:24.644Z,1.40
2023-01-06T11:03:33.296Z,1.60
2023-01-06T11:04:25.474Z,1.40
2023-01-06T11:05:24.469Z,1.36
2023-01-06T11:06:24.451Z,1.80
2023-01-06T11:07:24.442Z,1.68
2023-01-06T11:08:24.447Z,0.72
2023-01-06T11:09:24.428Z,1.24
2023-01-06T11:10:24.607Z,1.24
2023-01-06T11:11:28.905Z,1.64
2023-01-06T11:12:24.348Z,2.36
2023-01-06T11:13:24.377Z,2.32
2023-01-06T11:14:24.352Z,2.04
2023-01-06T11:15:24.322Z,3.12
2023-01-06T11:16:24.336Z,2.92
2023-01-06T11:17:24.298Z,1.92
2023-01-06T11:18:24.287Z,4.48
2023-01-06T11:19:24.537Z,2.28
2023-01-06T11:20:24.414Z,0.80
2023-01-06T11:21:24.254Z,2.56
2023-01-06T11:22:24.228Z,2.84
2023-01-06T11:23:24.202Z,3.40
2023-01-06T11:24:24.202Z,2.32
2023-01-06T11:25:24.193Z,1.40
2023-01-06T11:26:24.187Z,1.96
2023-01-06T11:27:24.161Z,2.32
2023-01-06T11:28:24.229Z,3.72
2023-01-06T11:29:24.139Z,3.92
2023-01-06T11:30:24.135Z,2.76
2023-01-06T11:31:24.413Z,2.72
2023-01-06T11:32:24.124Z,4.60
2023-01-06T11:33:24.113Z,2.24
2023-01-06T11:34:24.109Z,3.80
2023-01-06T11:35:24.205Z,2.76
2023-01-06T11:36:24.185Z,4.32
2023-01-06T11:37:24.063Z,3.04
2023-01-06T11:38:24.012Z,1.52
2023-01-06T11:39:24.225Z,2.72
2023-01-06T11:40:24.023Z,2.88
2023-01-06T11:41:25.947Z,2.96
2023-01-06T11:42:24.001Z,1.88
2023-01-06T11:43:23.947Z,3.32
2023-01-06T11:44:23.936Z,2.60
2023-01-06T11:45:24.013Z,2.32
2023-01-06T11:46:24.206Z,2.40
2023-01-06T11:47:23.900Z,2.64
2023-01-06T11:48:23.876Z,2.96
2023-01-06T11:49:23.859Z,3.28
2023-01-06T11:50:23.905Z,4.56
2023-01-06T11:51:23.880Z,3.48
2023-01-06T11:52:23.851Z,3.24
2023-01-06T11:53:23.838Z,3.24
2023-01-06T11:54:23.855Z,4.72
2023-01-06T11:55:23.787Z,2.92
2023-01-06T11:56:25.849Z,4.08
2023-01-06T11:57:24.143Z,3.36
2023-01-06T11:58:23.749Z,4.96
2023-01-06T11:59:23.800Z,2.68
2023-01-06T12:00:23.752Z,3.32
2023-01-06T12:01:23.757Z,2.80
2023-01-06T12:02:24.147Z,2.64
2023-01-06T12:03:23.850Z,1.40
2023-01-06T12:04:23.681Z,3.32
2023-01-06T12:05:23.744Z,3.96
2023-01-06T12:06:23.664Z,4.76
2023-01-06T12:07:23.803Z,6.28
2023-01-06T12:08:23.624Z,3.76
2023-01-06T12:09:23.667Z,3.20
2023-01-06T12:10:24.409Z,4.44
2023-01-06T12:11:23.691Z,5.52
2023-01-06T12:12:23.589Z,3.52
2023-01-06T12:13:23.635Z,2.04
2023-01-06T12:14:28.860Z,2.40
2023-01-06T12:15:24.559Z,4.40
2023-01-06T12:16:24.051Z,1.92
2023-01-06T12:17:23.740Z,2.16
2023-01-06T12:18:23.480Z,2.08
2023-01-06T12:19:23.636Z,3.64
2023-01-06T12:20:23.914Z,2.88
2023-01-06T12:21:23.603Z,1.92
2023-01-06T12:22:23.479Z,6.24
2023-01-06T12:23:23.486Z,3.08
2023-01-06T12:24:23.742Z,2.44
2023-01-06T12:25:23.446Z,3.64
2023-01-06T12:26:24.638Z,2.24
2023-01-06T12:27:23.374Z,3.36
2023-01-06T12:28:23.459Z,2.72
2023-01-06T12:29:23.535Z,2.60
2023-01-06T12:30:23.356Z,2.24
2023-01-06T12:31:23.351Z,2.00
2023-01-06T12:32:23.331Z,2.44
2023-01-06T12:33:23.461Z,4.28
2023-01-06T12:34:23.362Z,4.40
2023-01-06T12:35:23.301Z,5.80
2023-01-06T12:36:23.302Z,3.60
2023-01-06T12:37:23.555Z,6.20
2023-01-06T12:38:23.477Z,3.00
2023-01-06T12:39:23.200Z,3.76
2023-01-06T12:40:23.196Z,3.36
2023-01-06T12:41:23.212Z,4.52
2023-01-06T12:42:23.185Z,4.12
2023-01-06T12:43:23.165Z,4.64
2023-01-06T12:44:23.434Z,5.76
2023-01-06T12:45:23.144Z,4.04
2023-01-06T12:46:23.301Z,3.56
2023-01-06T12:47:23.106Z,4.20
2023-01-06T12:48:23.112Z,3.08
2023-01-06T12:49:23.092Z,3.52
2023-01-06T12:50:23.164Z,6.24
2023-01-06T12:51:23.145Z,4.76
2023-01-06T12:52:23.060Z,5.40
2023-01-06T12:53:23.039Z,4.88
2023-01-06T12:54:23.016Z,3.76
2023-01-06T12:55:23.045Z,4.24
2023-01-06T12:56:23.078Z,4.32
2023-01-06T12:57:22.975Z,3.12
2023-01-06T12:58:22.983Z,5.96
2023-01-06T12:59:23.022Z,6.12
2023-01-06T13:00:23.109Z,3.00
2023-01-06T13:01:23.029Z,3.32
2023-01-06T13:02:22.946Z,1.48
2023-01-06T13:03:22.945Z,3.68
2023-01-06T13:04:22.900Z,4.00
2023-01-06T13:05:22.939Z,4.20
2023-01-06T13:06:23.106Z,1.88
2023-01-06T13:07:22.880Z,3.92
2023-01-06T13:08:22.913Z,4.40
2023-01-06T13:09:22.825Z,3.36
2023-01-06T13:10:22.853Z,2.20
2023-01-06T13:11:22.792Z,3.12
2023-01-06T13:12:22.813Z,2.44
2023-01-06T13:13:22.877Z,3.04
2023-01-06T13:14:22.813Z,2.92
2023-01-06T13:15:22.833Z,2.56
2023-01-06T13:16:22.744Z,1.48
2023-01-06T13:17:22.859Z,3.64
2023-01-06T13:18:22.716Z,4.40
2023-01-06T13:19:22.732Z,3.16
2023-01-06T13:20:22.726Z,2.72
2023-01-06T13:21:22.687Z,3.60